Time;durP1;ratioP1;P1;durP2;ratioP2;P2;SDS_P1;SDS_P2;PMS_P1;PMS_P2;Temp;Humidity;BMP_temperature;BMP_pressure;BME280_temperature;BME280_humidity;BME280_pressure;Samples;Min_cycle;Max_cycle;Signal;HPM_P1;HPM_P2
2022/11/18 00:01:22;;;;;;;13.30;10.48;;;6.50;99.90;;;;;;6292196;22;20031;-56
2022/11/18 00:03:49;;;;;;;13.70;10.68;;;6.50;99.90;;;;;;6292990;22;20026;-56
2022/11/18 00:06:18;;;;;;;13.05;10.88;;;6.50;99.90;;;;;;6292946;22;20057;-57
2022/11/18 00:08:47;;;;;;;13.20;10.43;;;6.50;99.90;;;;;;6292709;22;20027;-56
2022/11/18 00:14:17;;;;;;;14.50;9.90;;;6.50;99.90;;;;;;6288729;22;20563;-56
2022/11/18 00:16:54;;;;;;;12.32;9.82;;;6.50;99.90;;;;;;6293339;22;20023;-57
2022/11/18 00:19:23;;;;;;;12.00;9.50;;;6.50;99.90;;;;;;6293114;22;20023;-56
2022/11/18 00:21:49;;;;;;;14.70;10.63;;;6.50;99.90;;;;;;6293034;22;20149;-60
2022/11/18 00:24:15;;;;;;;12.65;10.45;;;6.80;99.90;;;;;;6294398;22;20047;-58
2022/11/18 00:26:40;;;;;;;14.20;10.35;;;6.40;99.90;;;;;;6293760;22;20031;-57
2022/11/18 00:29:09;;;;;;;13.15;9.45;;;6.50;99.90;;;;;;6293471;22;20023;-57
2022/11/18 00:31:35;;;;;;;13.15;10.07;;;6.50;99.90;;;;;;6293830;22;20027;-58
2022/11/18 00:34:01;;;;;;;11.90;10.05;;;6.40;99.90;;;;;;6292470;22;20022;-57
2022/11/18 00:36:28;;;;;;;14.10;10.32;;;6.40;99.90;;;;;;6293772;22;20023;-58
2022/11/18 00:38:54;;;;;;;12.00;9.32;;;6.40;99.90;;;;;;6292569;22;20024;-58
2022/11/18 00:41:20;;;;;;;16.00;10.40;;;6.40;99.90;;;;;;6293606;22;20019;-56
2022/11/18 00:43:48;;;;;;;13.45;10.13;;;6.50;99.90;;;;;;6293004;22;20039;-56
2022/11/18 00:46:14;;;;;;;13.45;9.63;;;6.40;99.90;;;;;;6224204;22;20023;-57
2022/11/18 00:48:40;;;;;;;15.50;10.98;;;6.40;99.90;;;;;;6294124;22;20756;-56
2022/11/18 00:51:17;;;;;;;13.20;11.10;;;6.50;99.90;;;;;;6294473;22;20080;-56
2022/11/18 00:53:47;;;;;;;14.77;10.40;;;6.40;99.90;;;;;;6294853;22;20376;-57
2022/11/18 00:56:12;;;;;;;12.82;9.63;;;6.40;99.90;;;;;;6295717;22;20039;-56
2022/11/18 00:58:38;;;;;;;14.18;9.05;;;6.40;99.90;;;;;;6294652;22;20019;-57
2022/11/18 01:01:04;;;;;;;13.68;11.27;;;6.60;99.90;;;;;;6294543;22;20028;-57
2022/11/18 01:03:30;;;;;;;15.48;11.25;;;6.40;99.90;;;;;;6294037;22;20153;-57
2022/11/18 01:05:56;;;;;;;13.20;10.13;;;6.40;99.90;;;;;;6263597;22;20023;-57
2022/11/18 01:08:24;;;;;;;13.82;10.32;;;6.40;99.90;;;;;;6294366;22;20023;-57
2022/11/18 01:10:51;;;;;;;14.20;10.63;;;6.40;99.90;;;;;;6294173;22;20023;-56
2022/11/18 01:13:18;;;;;;;13.07;10.68;;;6.40;99.90;;;;;;6294843;22;20034;-57
2022/11/18 01:15:53;;;;;;;13.68;11.30;;;6.40;99.90;;;;;;6293998;22;20023;-56
2022/11/18 01:18:24;;;;;;;16.80;11.60;;;6.40;99.90;;;;;;6294245;22;20023;-57
2022/11/18 01:20:51;;;;;;;14.30;9.77;;;6.30;99.90;;;;;;6294030;22;20024;-55
2022/11/18 01:23:18;;;;;;;19.70;12.73;;;6.40;99.90;;;;;;6294628;22;20034;-57
2022/11/18 01:25:48;;;;;;;16.13;11.73;;;6.40;99.90;;;;;;6295318;22;20701;-55
2022/11/18 01:28:16;;;;;;;16.25;11.02;;;6.30;99.90;;;;;;6294926;22;20015;-57
2022/11/18 01:30:42;;;;;;;15.95;11.40;;;6.30;99.90;;;;;;6294360;22;20065;-56
2022/11/18 01:33:08;;;;;;;19.05;11.73;;;6.90;99.90;;;;;;6294766;22;20020;-56
2022/11/18 01:35:42;;;;;;;13.98;10.48;;;6.30;99.90;;;;;;6294210;22;20110;-56
2022/11/18 01:38:10;;;;;;;19.75;12.05;;;6.30;99.90;;;;;;6293751;22;20514;-56
2022/11/18 01:40:36;;;;;;;15.63;11.60;;;6.30;99.90;;;;;;6294606;22;20027;-57
2022/11/18 01:43:09;;;;;;;14.23;11.68;;;6.30;99.90;;;;;;6294292;22;20019;-57
2022/11/18 01:45:39;;;;;;;17.50;11.35;;;6.30;99.90;;;;;;6295216;22;20031;-56
2022/11/18 01:48:30;;;;;;;17.38;12.15;;;6.30;99.90;;;;;;6296250;22;20446;-57
2022/11/18 01:51:05;;;;;;;18.30;11.98;;;6.30;99.90;;;;;;6294482;22;20605;-56
2022/11/18 01:53:36;;;;;;;18.88;12.00;;;6.20;99.90;;;;;;6296164;22;20106;-56
2022/11/18 01:56:07;;;;;;;18.17;11.98;;;6.30;99.90;;;;;;6295926;22;20062;-56
2022/11/18 01:58:40;;;;;;;16.55;10.88;;;7.20;99.90;;;;;;6296807;22;20530;-56
2022/11/18 02:01:07;;;;;;;16.65;11.05;;;6.20;99.90;;;;;;6247083;22;1103889;-56
2022/11/18 02:03:33;;;;;;;20.10;12.20;;;6.20;99.90;;;;;;6296824;22;20043;-56
2022/11/18 02:06:01;;;;;;;16.90;10.90;;;6.20;99.90;;;;;;6296276;22;20027;-57
2022/11/18 02:08:28;;;;;;;23.10;12.73;;;6.20;99.90;;;;;;6286689;22;20125;-57
2022/11/18 02:10:54;;;;;;;20.60;11.10;;;6.20;99.90;;;;;;6267683;22;20063;-56
2022/11/18 02:13:20;;;;;;;19.33;12.77;;;6.20;99.90;;;;;;6250325;22;20449;-56
2022/11/18 02:16:03;;;;;;;24.38;12.95;;;6.20;99.90;;;;;;6290383;22;20097;-56
2022/11/18 02:18:47;;;;;;;23.58;12.55;;;6.60;99.90;;;;;;6218368;22;20027;-57
2022/11/18 02:21:47;;;;;;;21.38;12.00;;;6.10;99.90;;;;;;6295044;22;20030;-56
2022/11/18 02:24:41;;;;;;;16.20;11.75;;;6.10;99.90;;;;;;6295212;22;20089;-56
2022/11/18 02:27:47;;;;;;;15.23;10.35;;;6.10;99.90;;;;;;6295628;22;20041;-57
2022/11/18 02:30:15;;;;;;;20.50;11.20;;;6.20;99.90;;;;;;6139718;22;20108;-57
2022/11/18 02:35:15;;;;;;;21.25;10.85;;;6.10;99.90;;;;;;6140180;22;20032;-57
2022/11/18 02:40:14;;;;;;;17.77;10.48;;;6.10;99.90;;;;;;6125834;23;20075;-57
2022/11/18 02:42:42;;;;;;;15.63;10.45;;;6.10;99.90;;;;;;6138278;22;20033;-56
2022/11/18 02:45:14;;;;;;;17.25;10.80;;;6.10;99.90;;;;;;6138236;22;20144;-56
2022/11/18 02:50:13;;;;;;;19.23;12.18;;;6.30;99.90;;;;;;6138007;23;20075;-56
2022/11/18 02:52:40;;;;;;;21.95;10.95;;;6.00;99.90;;;;;;6138018;23;20022;-56
2022/11/18 02:55:10;;;;;;;16.58;11.05;;;6.10;99.90;;;;;;6217129;22;20022;-56
2022/11/18 02:57:37;;;;;;;17.23;9.73;;;6.00;99.90;;;;;;6137515;23;20424;-56
2022/11/18 03:00:04;;;;;;;18.38;11.48;;;6.10;99.90;;;;;;6138326;22;20030;-56
2022/11/18 03:02:47;;;;;;;15.25;9.52;;;6.00;99.90;;;;;;6220989;22;20411;-56
2022/11/18 03:05:37;;;;;;;15.80;10.10;;;6.00;99.90;;;;;;6128123;22;20488;-56
2022/11/18 03:08:10;;;;;;;17.83;9.90;;;6.00;99.90;;;;;;6137352;22;20036;-57
2022/11/18 03:10:42;;;;;;;17.25;9.75;;;6.00;99.90;;;;;;6138355;22;20033;-56
2022/11/18 03:13:26;;;;;;;14.05;8.88;;;6.00;99.90;;;;;;6138132;23;20033;-56
2022/11/18 03:16:01;;;;;;;15.02;10.70;;;6.00;99.90;;;;;;6137404;22;20333;-55
2022/11/18 03:18:30;;;;;;;16.15;9.30;;;6.00;99.90;;;;;;6138892;23;20092;-56
2022/11/18 03:21:10;;;;;;;14.23;8.88;;;5.90;99.90;;;;;;6137753;23;20083;-57
2022/11/18 03:23:39;;;;;;;17.63;10.23;;;6.00;99.90;;;;;;6245797;22;20108;-57
2022/11/18 03:26:21;;;;;;;14.50;9.10;;;5.90;99.90;;;;;;6293682;22;20023;-56
2022/11/18 03:28:57;;;;;;;15.65;9.30;;;5.90;99.90;;;;;;6293513;22;20027;-56
2022/11/18 03:31:32;;;;;;;13.75;9.32;;;5.90;99.90;;;;;;6294134;22;20353;-57
2022/11/18 03:34:03;;;;;;;16.85;9.82;;;5.90;99.90;;;;;;6293703;22;20725;-56
2022/11/18 03:36:33;;;;;;;16.58;9.15;;;5.90;99.90;;;;;;6293999;22;20453;-56
2022/11/18 03:39:02;;;;;;;24.20;11.23;;;5.90;99.90;;;;;;6294061;22;20122;-56
2022/11/18 03:41:31;;;;;;;13.20;9.05;;;5.90;99.90;;;;;;6294684;22;20019;-56
2022/11/18 03:44:09;;;;;;;15.57;9.88;;;5.90;99.90;;;;;;6292998;22;20050;-57
2022/11/18 03:49:17;;;;;;;13.10;8.82;;;5.90;99.90;;;;;;6293383;22;20019;-56
2022/11/18 03:54:14;;;;;;;18.17;9.68;;;5.90;99.90;;;;;;6294028;22;20030;-56
2022/11/18 03:56:47;;;;;;;15.65;10.23;;;5.90;99.90;;;;;;6294215;22;20414;-56
2022/11/18 03:59:17;;;;;;;17.15;10.70;;;5.90;99.90;;;;;;6222313;22;20487;-56
2022/11/18 04:01:47;;;;;;;15.65;8.95;;;5.90;99.90;;;;;;6293692;22;20106;-56
2022/11/18 04:04:13;;;;;;;15.07;10.43;;;5.90;99.90;;;;;;6293876;22;20396;-57
2022/11/18 04:06:47;;;;;;;15.48;9.82;;;5.90;99.90;;;;;;6292950;22;20027;-57
2022/11/18 04:09:18;;;;;;;19.25;9.60;;;5.90;99.90;;;;;;6266126;22;20027;-57
2022/11/18 04:12:03;;;;;;;14.90;9.32;;;5.90;99.90;;;;;;6292651;22;20039;-56
2022/11/18 04:14:33;;;;;;;;;;;5.80;99.90;;;;;;6295221;22;20145;-56
2022/11/18 04:16:59;;;;;;;15.15;9.07;;;5.80;99.90;;;;;;6293328;22;20273;-56
2022/11/18 04:19:25;;;;;;;14.80;9.63;;;5.80;99.90;;;;;;6294271;22;20038;-57
2022/11/18 04:21:50;;;;;;;13.98;9.23;;;6.20;99.90;;;;;;6293115;22;20077;-55
2022/11/18 04:24:16;;;;;;;13.98;8.93;;;5.80;99.90;;;;;;6293561;22;20054;-57
2022/11/18 04:26:42;;;;;;;12.73;9.25;;;5.80;99.90;;;;;;6294231;22;20073;-57
2022/11/18 04:29:08;;;;;;;11.55;8.80;;;5.80;99.90;;;;;;6293240;22;20035;-57
2022/11/18 04:31:33;;;;;;;14.30;9.48;;;5.80;99.90;;;;;;6266062;22;20055;-57
2022/11/18 04:33:59;;;;;;;13.73;8.57;;;5.80;99.90;;;;;;6292446;22;20019;-57
2022/11/18 04:36:24;;;;;;;13.95;8.18;;;5.80;99.90;;;;;;6293456;22;20034;-57
2022/11/18 04:38:50;;;;;;;15.43;8.43;;;5.80;99.90;;;;;;6292698;22;20019;-56
2022/11/18 04:41:16;;;;;;;13.52;8.30;;;5.80;99.90;;;;;;6293758;22;20332;-57
2022/11/18 04:43:41;;;;;;;12.65;9.02;;;5.80;99.90;;;;;;6288194;22;20065;-57
2022/11/18 04:46:07;;;;;;;12.68;8.13;;;6.10;99.90;;;;;;6292116;22;20590;-56
2022/11/18 04:48:33;;;;;;;12.23;8.07;;;5.90;99.90;;;;;;6293070;22;20023;-57
2022/11/18 04:51:03;;;;;;;12.73;8.50;;;5.80;99.90;;;;;;6292289;22;20024;-57
2022/11/18 04:53:29;;;;;;;14.13;7.93;;;5.80;99.90;;;;;;6293834;22;20450;-57
2022/11/18 04:55:55;;;;;;;21.65;10.10;;;5.80;99.90;;;;;;6293230;22;20027;-57
2022/11/18 04:58:20;;;;;;;13.75;7.72;;;5.80;99.90;;;;;;6292914;22;20114;-57
2022/11/18 05:00:49;;;;;;;11.80;8.43;;;5.80;99.90;;;;;;6293643;22;20033;-57
2022/11/18 05:03:15;;;;;;;13.40;9.15;;;5.80;99.90;;;;;;6293542;22;20031;-57
2022/11/18 05:05:40;;;;;;;13.45;8.82;;;5.80;99.90;;;;;;6265077;22;20053;-61
2022/11/18 05:08:06;;;;;;;16.85;9.80;;;5.80;99.90;;;;;;6292843;22;20031;-59
2022/11/18 05:10:32;;;;;;;16.70;8.70;;;5.80;99.90;;;;;;6293239;22;20034;-59
2022/11/18 05:12:58;;;;;;;15.00;9.07;;;5.70;99.90;;;;;;6293831;22;20072;-59
2022/11/18 05:15:23;;;;;;;17.77;9.77;;;5.80;99.90;;;;;;6294300;22;20047;-61
2022/11/18 05:17:49;;;;;;;17.63;10.70;;;5.80;99.90;;;;;;6293472;22;20049;-58
2022/11/18 05:20:15;;;;;;;14.70;9.15;;;5.80;99.90;;;;;;6293973;22;20073;-59
2022/11/18 05:22:41;;;;;;;16.65;9.27;;;5.70;99.90;;;;;;6294047;22;20023;-58
2022/11/18 05:25:08;;;;;;;17.98;10.73;;;5.70;99.90;;;;;;6294878;22;20081;-56
2022/11/18 05:27:33;;;;;;;15.73;8.88;;;5.70;99.90;;;;;;6268882;22;20331;-60
2022/11/18 05:29:59;;;;;;;14.55;9.18;;;5.70;99.90;;;;;;6294896;22;20355;-60
2022/11/18 05:32:25;;;;;;;14.02;9.57;;;5.70;99.90;;;;;;6295521;22;20045;-59
2022/11/18 05:34:51;;;;;;;22.35;10.35;;;5.70;99.90;;;;;;6253000;22;20032;-61
2022/11/18 05:37:16;;;;;;;20.25;9.73;;;5.70;99.90;;;;;;6293454;22;20027;-58
2022/11/18 05:39:42;;;;;;;19.02;10.02;;;5.70;99.90;;;;;;6236392;22;20355;-58
2022/11/18 05:44:53;;;;;;;18.90;10.07;;;5.70;99.90;;;;;;6137885;22;20457;-56
2022/11/18 05:47:19;;;;;;;14.02;9.02;;;5.70;99.90;;;;;;6293565;22;20027;-57
2022/11/18 05:49:48;;;;;;;19.52;10.38;;;5.70;99.90;;;;;;6293802;22;20027;-56
2022/11/18 05:52:13;;;;;;;19.05;9.48;;;5.70;99.90;;;;;;6138272;22;20145;-57
2022/11/18 05:57:08;;;;;;;14.07;9.02;;;5.70;99.90;;;;;;6290530;22;20108;-59
2022/11/18 05:59:34;;;;;;;21.52;10.35;;;5.70;99.90;;;;;;6287713;22;20619;-59
2022/11/18 06:02:14;;;;;;;21.17;10.50;;;5.60;99.90;;;;;;6264474;22;20030;-57
2022/11/18 06:04:42;;;;;;;20.77;9.82;;;5.60;99.90;;;;;;6294230;22;20031;-59
2022/11/18 06:07:28;;;;;;;20.48;10.48;;;5.70;99.90;;;;;;6293830;22;20389;-57
2022/11/18 06:09:58;;;;;;;18.10;10.63;;;5.60;99.90;;;;;;6292875;22;20030;-56
2022/11/18 06:12:34;;;;;;;18.23;9.35;;;5.60;99.90;;;;;;6293795;22;20030;-57
2022/11/18 06:15:09;;;;;;;16.58;10.00;;;5.60;99.90;;;;;;6293484;22;20051;-57
2022/11/18 06:20:12;;;;;;;18.60;9.87;;;5.60;99.90;;;;;;6245736;22;1098043;-57
2022/11/18 06:22:38;;;;;;;21.08;11.05;;;5.60;99.90;;;;;;6292377;22;20438;-57
2022/11/18 06:25:04;;;;;;;19.85;11.43;;;5.60;99.90;;;;;;6155831;22;20057;-56
2022/11/18 06:27:30;;;;;;;23.92;10.80;;;5.60;99.90;;;;;;6266633;22;20085;-57
2022/11/18 06:29:56;;;;;;;21.70;12.13;;;5.60;99.90;;;;;;6294493;22;20023;-56
2022/11/18 06:32:21;;;;;;;29.90;13.98;;;5.60;99.90;;;;;;6293279;22;20025;-56
2022/11/18 06:34:47;;;;;;;21.50;11.57;;;5.60;99.90;;;;;;6265913;22;20027;-55
2022/11/18 06:37:14;;;;;;;22.05;11.60;;;5.60;99.90;;;;;;6292721;22;20034;-56
2022/11/18 06:39:40;;;;;;;21.25;11.23;;;5.60;99.90;;;;;;6295406;22;20027;-56
2022/11/18 06:42:05;;;;;;;21.17;10.48;;;5.60;99.90;;;;;;6294642;22;20084;-57
2022/11/18 06:44:31;;;;;;;22.95;11.48;;;5.60;99.90;;;;;;6293242;22;20027;-57
2022/11/18 06:46:57;;;;;;;22.50;11.43;;;5.60;99.90;;;;;;6265215;22;20055;-57
2022/11/18 06:49:26;;;;;;;19.75;11.27;;;5.50;99.90;;;;;;6266544;22;20030;-58
2022/11/18 06:51:52;;;;;;;22.90;11.05;;;5.50;99.90;;;;;;6293618;22;20403;-58
2022/11/18 06:54:18;;;;;;;19.20;10.45;;;5.50;99.90;;;;;;6294083;22;20024;-62
2022/11/18 06:56:47;;;;;;;19.15;10.35;;;5.60;99.90;;;;;;6285094;22;20023;-56
2022/11/18 06:59:13;;;;;;;24.25;11.90;;;5.50;99.90;;;;;;6294123;22;20019;-60
2022/11/18 07:01:40;;;;;;;27.60;12.88;;;5.50;99.90;;;;;;6295672;22;20019;-60
2022/11/18 07:04:06;;;;;;;20.05;13.27;;;5.50;99.90;;;;;;6138827;22;21242;-63
2022/11/18 07:06:34;;;;;;;24.02;12.43;;;5.50;99.90;;;;;;6293436;22;20208;-62
2022/11/18 07:09:01;;;;;;;24.98;13.07;;;5.50;99.90;;;;;;6264017;22;20316;-57
2022/11/18 07:11:27;;;;;;;27.17;13.38;;;5.50;99.90;;;;;;6139178;22;20439;-58
2022/11/18 07:13:53;;;;;;;25.60;13.23;;;5.50;99.90;;;;;;6295255;22;20125;-58
2022/11/18 07:16:26;;;;;;;30.67;13.40;;;5.40;99.90;;;;;;6295407;22;20027;-61
2022/11/18 07:18:53;;;;;;;19.52;12.25;;;6.50;99.90;;;;;;6294996;22;20100;-59
2022/11/18 07:21:21;;;;;;;22.05;12.93;;;5.40;99.90;;;;;;6294692;22;20019;-58
2022/11/18 07:23:47;;;;;;;25.60;14.38;;;5.40;99.90;;;;;;6295022;22;20023;-58
2022/11/18 07:26:13;;;;;;;21.33;12.35;;;5.40;99.90;;;;;;6295211;22;20030;-60
2022/11/18 07:28:39;;;;;;;20.90;12.30;;;5.40;99.90;;;;;;6294786;22;20027;-62
2022/11/18 07:31:07;;;;;;;22.77;12.57;;;5.40;99.90;;;;;;6294474;22;20031;-59
2022/11/18 07:33:34;;;;;;;20.30;11.93;;;5.80;99.90;;;;;;6295564;22;20748;-61
2022/11/18 07:36:02;;;;;;;23.95;12.35;;;5.40;99.90;;;;;;6266648;22;20027;-60
2022/11/18 07:38:28;;;;;;;22.05;11.25;;;5.40;99.90;;;;;;6294624;22;20450;-62
2022/11/18 07:40:55;;;;;;;21.25;11.75;;;5.40;99.90;;;;;;6294127;22;20080;-57
2022/11/18 07:43:21;;;;;;;21.65;11.40;;;3.70;99.90;;;;;;6293427;22;20030;-57
2022/11/18 07:45:47;;;;;;;22.60;11.95;;;5.30;99.90;;;;;;6294677;22;20073;-57
2022/11/18 07:48:13;;;;;;;21.15;10.95;;;5.30;99.90;;;;;;6137599;22;20044;-57
2022/11/18 07:50:38;;;;;;;22.23;12.00;;;5.40;99.90;;;;;;6255749;22;20051;-58
2022/11/18 07:53:04;;;;;;;22.25;12.15;;;5.40;99.90;;;;;;6262915;22;20019;-61
2022/11/18 07:55:30;;;;;;;20.58;11.35;;;5.40;99.90;;;;;;6291883;22;20015;-62
2022/11/18 07:57:55;;;;;;;24.35;14.35;;;5.40;99.90;;;;;;6292604;22;20059;-60
2022/11/18 08:00:21;;;;;;;22.80;14.25;;;5.40;99.90;;;;;;6291386;22;20023;-61
2022/11/18 08:02:50;;;;;;;23.13;13.68;;;5.60;99.90;;;;;;6287900;22;20031;-59
2022/11/18 08:05:16;;;;;;;24.80;14.52;;;5.40;99.90;;;;;;6231615;22;20548;-58
2022/11/18 08:07:42;;;;;;;23.98;14.38;;;5.40;99.90;;;;;;6290584;22;20027;-63
2022/11/18 08:10:08;;;;;;;24.95;13.50;;;5.40;99.90;;;;;;6290326;22;20053;-56
2022/11/18 08:12:33;;;;;;;24.35;14.40;;;5.50;99.90;;;;;;6289593;22;20327;-57
2022/11/18 08:14:59;;;;;;;27.95;16.63;;;5.40;99.90;;;;;;6290643;22;20023;-56
2022/11/18 08:17:25;;;;;;;23.33;14.48;;;5.40;99.90;;;;;;6292626;22;20015;-57
2022/11/18 08:19:50;;;;;;;22.58;13.05;;;5.50;99.90;;;;;;6292640;22;20034;-56
2022/11/18 08:22:19;;;;;;;26.23;13.82;;;6.00;99.90;;;;;;6293179;22;20066;-57
2022/11/18 08:27:13;;;;;;;23.15;12.80;;;5.40;99.90;;;;;;6233525;22;20106;-56
2022/11/18 08:29:40;;;;;;;18.75;11.93;;;5.40;99.90;;;;;;6292015;22;20105;-56
2022/11/18 08:32:05;;;;;;;20.48;11.65;;;5.40;99.90;;;;;;6290565;22;20027;-56
2022/11/18 08:34:31;;;;;;;18.77;11.32;;;5.40;99.90;;;;;;6292167;22;20027;-58
2022/11/18 08:36:57;;;;;;;19.63;12.38;;;6.10;99.90;;;;;;6291623;22;20036;-56
2022/11/18 08:39:23;;;;;;;18.73;10.65;;;5.40;99.90;;;;;;6263830;22;20047;-57
2022/11/18 08:41:50;;;;;;;21.10;13.20;;;5.60;99.90;;;;;;6291527;22;20051;-56
2022/11/18 08:44:16;;;;;;;16.60;10.73;;;5.50;99.90;;;;;;6288704;22;20023;-57
2022/11/18 08:46:44;;;;;;;19.05;11.82;;;5.50;99.90;;;;;;6287437;22;20078;-56
2022/11/18 08:49:08;;;;;;;23.00;13.10;;;5.40;99.90;;;;;;6290114;22;20395;-56
2022/11/18 08:51:34;;;;;;;21.92;12.40;;;5.40;99.90;;;;;;6290936;22;20031;-57
2022/11/18 08:54:00;;;;;;;22.00;13.85;;;5.90;99.90;;;;;;6288506;22;20053;-56
2022/11/18 08:56:25;;;;;;;18.63;12.95;;;5.40;99.90;;;;;;6292167;22;20536;-56
2022/11/18 08:58:51;;;;;;;22.40;14.93;;;5.40;99.90;;;;;;6292138;22;20411;-56
2022/11/18 09:01:17;;;;;;;19.83;13.32;;;5.40;99.90;;;;;;6292785;22;20437;-56
2022/11/18 09:03:43;;;;;;;20.73;11.75;;;5.40;99.90;;;;;;6293163;22;20019;-56
2022/11/18 09:06:11;;;;;;;19.85;11.63;;;5.40;99.90;;;;;;6265809;22;20023;-56
2022/11/18 09:08:37;;;;;;;18.20;10.48;;;5.40;99.90;;;;;;6293748;22;20146;-56
2022/11/18 09:11:12;;;;;;;17.20;11.25;;;5.40;99.90;;;;;;6293697;22;20101;-56
2022/11/18 09:13:38;;;;;;;16.88;9.13;;;5.40;99.90;;;;;;6289446;22;20023;-57
2022/11/18 09:16:05;;;;;;;15.07;9.48;;;5.30;99.90;;;;;;6262708;22;20031;-56
2022/11/18 09:18:31;;;;;;;17.50;9.40;;;5.30;99.90;;;;;;6293249;22;20038;-56
2022/11/18 09:20:59;;;;;;;15.13;8.85;;;5.60;99.90;;;;;;6292983;22;20422;-56
2022/11/18 09:23:25;;;;;;;15.35;9.15;;;5.40;99.90;;;;;;6294256;22;20027;-57
2022/11/18 09:26:01;;;;;;;16.52;9.57;;;5.40;99.90;;;;;;6292756;22;20545;-56
2022/11/18 09:28:27;;;;;;;17.77;10.93;;;5.40;99.90;;;;;;6292438;22;20424;-57
2022/11/18 09:30:53;;;;;;;16.77;9.70;;;5.50;99.90;;;;;;6288118;22;20381;-56
2022/11/18 09:33:20;;;;;;;17.45;10.85;;;5.40;99.90;;;;;;6290972;22;20072;-56
2022/11/18 09:35:49;;;;;;;17.85;8.90;;;5.40;99.90;;;;;;6291260;22;20135;-56
2022/11/18 09:38:15;;;;;;;15.68;9.00;;;5.80;99.90;;;;;;6292223;22;20037;-56
2022/11/18 09:40:47;;;;;;;22.23;9.88;;;5.40;99.90;;;;;;6291077;22;20031;-56
2022/11/18 09:43:34;;;;;;;16.88;11.13;;;5.40;99.90;;;;;;6291301;22;20074;-56
2022/11/18 09:46:08;;;;;;;17.45;10.95;;;6.10;99.90;;;;;;6290016;22;20096;-56
2022/11/18 09:51:13;;;;;;;19.77;11.98;;;5.30;99.90;;;;;;6231044;22;20408;-56
2022/11/18 09:56:15;;;;;;;16.45;10.77;;;5.30;99.90;;;;;;6289676;22;20058;-57
2022/11/18 09:58:42;;;;;;;20.42;11.68;;;5.30;99.90;;;;;;6288744;22;20045;-57
2022/11/18 10:01:16;;;;;;;18.05;11.05;;;5.20;99.90;;;;;;6285297;22;20050;-56
2022/11/18 10:03:41;;;;;;;18.67;10.38;;;5.40;99.90;;;;;;6284720;22;20030;-56
2022/11/18 10:06:20;;;;;;;25.42;12.13;;;5.20;99.90;;;;;;6263236;22;20023;-56
2022/11/18 10:08:47;;;;;;;21.33;11.50;;;5.20;99.90;;;;;;6262834;22;20030;-56
2022/11/18 10:11:14;;;;;;;20.52;12.75;;;5.20;99.90;;;;;;6288682;22;20031;-57
2022/11/18 10:13:47;;;;;;;22.77;12.23;;;5.20;99.90;;;;;;6261011;22;20309;-57
2022/11/18 10:16:30;;;;;;;23.98;11.77;;;5.10;99.90;;;;;;6132793;22;20034;-57
2022/11/18 10:19:15;;;;;;;22.60;11.40;;;5.10;99.90;;;;;;6231803;22;20405;-57
2022/11/18 10:21:47;;;;;;;;;;;5.10;99.90;;;;;;6134577;22;20669;-56
2022/11/18 10:24:19;;;;;;;20.63;11.20;;;5.00;99.90;;;;;;6134398;23;19989;-56
2022/11/18 10:26:55;;;;;;;25.38;12.88;;;5.10;99.90;;;;;;6134900;23;20052;-57
2022/11/18 10:29:21;;;;;;;31.35;14.70;;;5.10;99.90;;;;;;6134093;23;20045;-56
2022/11/18 10:31:55;;;;;;;26.38;13.98;;;6.40;99.90;;;;;;6131767;22;20083;-56
2022/11/18 10:34:21;;;;;;;25.52;13.93;;;5.10;99.90;;;;;;6209995;22;20019;-56
2022/11/18 10:37:01;;;;;;;29.02;15.00;;;5.10;99.90;;;;;;6289073;22;20436;-55
2022/11/18 10:39:27;;;;;;;25.50;15.25;;;5.00;99.90;;;;;;6290118;22;20098;-57
2022/11/18 10:42:15;;;;;;;27.08;14.00;;;5.00;99.90;;;;;;6239113;22;1150447;-56
2022/11/18 10:44:41;;;;;;;28.98;15.43;;;5.00;99.90;;;;;;6290025;22;20116;-57
2022/11/18 10:47:14;;;;;;;26.25;14.52;;;5.00;99.90;;;;;;6289609;22;20532;-57
2022/11/18 10:49:40;;;;;;;27.33;15.30;;;4.80;99.90;;;;;;6290115;22;20566;-57
2022/11/18 10:52:11;;;;;;;25.33;15.00;;;4.80;99.90;;;;;;6289031;22;20028;-56
2022/11/18 10:54:37;;;;;;;25.92;13.80;;;4.70;99.90;;;;;;6289476;22;20393;-57
2022/11/18 10:57:23;;;;;;;31.33;17.83;;;4.80;99.90;;;;;;6287960;22;20074;-57
2022/11/18 10:59:52;;;;;;;30.00;14.98;;;4.80;99.90;;;;;;6288571;22;20439;-56
2022/11/18 11:02:23;;;;;;;26.55;14.95;;;4.80;99.90;;;;;;6288897;22;20027;-56
2022/11/18 11:04:50;;;;;;;25.23;13.82;;;4.70;99.90;;;;;;6289449;22;20034;-56
2022/11/18 11:07:34;;;;;;;29.58;15.23;;;4.80;99.90;;;;;;6289891;22;20050;-56
2022/11/18 11:10:00;;;;;;;;;;;4.80;99.90;;;;;;6289085;22;20124;-56
2022/11/18 11:12:29;;;;;;;29.05;14.32;;;5.50;99.90;;;;;;6290358;22;19918;-56
2022/11/18 11:14:59;;;;;;;28.30;14.48;;;5.40;99.90;;;;;;6286837;22;20094;-56
2022/11/18 11:17:30;;;;;;;22.77;12.77;;;5.10;99.90;;;;;;6290559;22;20035;-57
2022/11/18 11:20:20;;;;;;;27.63;13.60;;;4.70;99.90;;;;;;6287641;22;20043;-56
2022/11/18 11:22:48;;;;;;;26.98;13.88;;;4.70;99.90;;;;;;6285107;22;20057;-56
2022/11/18 11:25:35;;;;;;;22.10;13.45;;;4.70;99.90;;;;;;6287736;22;20019;-57
2022/11/18 11:28:11;;;;;;;25.95;13.70;;;4.70;99.90;;;;;;6290813;22;20019;-57
2022/11/18 11:30:47;;;;;;;25.83;13.05;;;4.70;99.90;;;;;;6291990;22;20034;-56
2022/11/18 11:33:22;;;;;;;28.83;12.75;;;4.80;99.90;;;;;;6290856;22;20021;-56
2022/11/18 11:36:28;;;;;;;28.45;13.93;;;4.70;99.90;;;;;;6262890;22;20030;-56
2022/11/18 11:39:04;;;;;;;24.83;13.20;;;4.70;99.90;;;;;;6292284;22;20162;-56
2022/11/18 11:41:47;;;;;;;23.20;13.65;;;4.70;99.90;;;;;;6293195;22;20073;-56
2022/11/18 11:44:47;;;;;;;25.48;15.25;;;4.60;99.90;;;;;;6294467;22;20049;-57
2022/11/18 11:50:15;;;;;;;27.50;14.93;;;4.70;99.90;;;;;;6293668;22;20088;-56
2022/11/18 11:52:47;;;;;;;29.20;14.85;;;4.70;99.90;;;;;;6136456;23;20122;-56
2022/11/18 11:55:24;;;;;;;27.92;13.40;;;4.60;99.90;;;;;;6259839;22;20054;-56
2022/11/18 11:58:07;;;;;;;23.15;12.80;;;4.70;99.90;;;;;;6289513;22;20457;-56
2022/11/18 12:00:40;;;;;;;25.58;14.48;;;4.80;99.90;;;;;;6293625;22;20043;-57
2022/11/18 12:03:12;;;;;;;21.90;12.50;;;4.70;99.90;;;;;;6291677;22;20400;-56
2022/11/18 12:05:41;;;;;;;19.45;11.93;;;4.50;99.90;;;;;;6293004;22;20034;-56
2022/11/18 12:08:15;;;;;;;20.23;11.20;;;4.50;99.90;;;;;;6292953;22;20068;-56
2022/11/18 12:10:47;;;;;;;20.58;10.52;;;4.60;99.90;;;;;;6293751;22;20353;-56
2022/11/18 12:13:34;;;;;;;15.82;9.13;;;4.50;99.90;;;;;;6138514;22;20030;-56
2022/11/18 12:16:14;;;;;;;16.52;10.05;;;4.40;99.90;;;;;;6137323;22;20026;-57
2022/11/18 12:18:47;;;;;;;17.02;9.82;;;4.30;99.90;;;;;;6137427;23;20347;-57
2022/11/18 12:21:41;;;;;;;21.60;11.40;;;4.40;99.90;;;;;;6270157;22;20100;-56
2022/11/18 12:24:21;;;;;;;14.38;9.63;;;4.30;99.90;;;;;;6264235;22;20349;-56
2022/11/18 12:26:49;;;;;;;17.45;10.70;;;4.20;99.90;;;;;;6291193;22;20538;-55
2022/11/18 12:29:17;;;;;;;18.90;10.40;;;4.30;99.90;;;;;;6137661;22;20052;-57
2022/11/18 12:31:47;;;;;;;23.20;12.23;;;4.20;99.90;;;;;;6292963;22;20023;-57
2022/11/18 12:34:25;;;;;;;21.20;12.52;;;4.10;99.90;;;;;;6225525;22;20030;-57
2022/11/18 12:36:52;;;;;;;21.27;12.32;;;4.10;99.90;;;;;;6264246;22;20092;-56
2022/11/18 12:39:26;;;;;;;26.55;15.32;;;4.10;99.90;;;;;;6291231;22;20030;-57
2022/11/18 12:44:39;;;;;;;29.35;14.23;;;4.00;99.90;;;;;;6292807;22;20082;-57
2022/11/18 12:47:25;;;;;;;29.05;15.98;;;4.00;99.90;;;;;;6263702;22;20083;-57
2022/11/18 12:50:06;;;;;;;25.20;14.00;;;4.00;99.90;;;;;;6261325;22;20484;-56
2022/11/18 12:52:32;;;;;;;31.08;16.73;;;3.90;99.90;;;;;;6291721;22;20019;-56
2022/11/18 12:55:01;;;;;;;27.45;14.38;;;3.90;99.90;;;;;;6289393;22;20026;-57
2022/11/18 12:57:31;;;;;;;30.70;15.60;;;4.00;99.90;;;;;;6292348;22;20031;-58
2022/11/18 12:59:56;;;;;;;25.55;14.13;;;4.00;99.90;;;;;;6289022;22;20039;-58
2022/11/18 13:02:29;;;;;;;24.38;14.23;;;3.30;99.90;;;;;;6287450;22;20417;-57
2022/11/18 13:05:11;;;;;;;26.25;14.80;;;3.90;99.90;;;;;;6289138;22;20020;-57
2022/11/18 13:10:21;;;;;;;25.27;13.45;;;3.90;99.90;;;;;;6291653;22;20034;-58
2022/11/18 13:12:47;;;;;;;32.03;15.25;;;3.90;99.90;;;;;;6291551;22;20461;-59
2022/11/18 13:18:09;;;;;;;26.75;14.75;;;3.80;99.90;;;;;;6291563;22;20034;-58
2022/11/18 13:20:37;;;;;;;27.83;14.27;;;3.70;99.90;;;;;;6291193;22;20100;-57
2022/11/18 13:26:04;;;;;;;24.25;13.45;;;3.70;99.90;;;;;;6270925;22;20027;-57
2022/11/18 13:28:47;;;;;;;23.85;12.82;;;3.70;99.90;;;;;;6262832;22;20088;-57
2022/11/18 13:31:31;;;;;;;25.75;13.07;;;3.70;99.90;;;;;;6135554;22;20348;-57
2022/11/18 13:34:07;;;;;;;23.27;13.32;;;3.50;99.90;;;;;;6134705;22;20071;-57
2022/11/18 13:36:33;;;;;;;24.08;13.43;;;3.60;99.90;;;;;;6136301;22;20028;-57
2022/11/18 13:39:02;;;;;;;26.48;13.32;;;3.70;99.90;;;;;;6196859;22;20020;-56
2022/11/18 13:41:32;;;;;;;28.17;13.73;;;3.60;99.90;;;;;;6264365;22;20349;-57